Latest Weather Observations for Milingimbi

IDD60801

Issued at 3:05 pm CST Saturday 19 April 2014 (issued every 30 minutes, with the page automatically refreshed every 10 minutes)

About weather observations | Map of weather stations | Latest weather observations for NT | Other Formats
Station Details ID: 014404 Name: MILINGIMBI AIRPORT Lat: -12.09 Lon: 134.89 Height: 15.0 m
Data from the previous 72 hours. | See also: Recent months at Milingimbi
Date/Time
CST
Temp
°C
App
Temp
°C
Dew
Point
Rel
Hum
%
Delta-T
°C
Wind Press
QNH
hPa
Press
MSL
hPa
Rain
since 9 am
mm
Dir
 
Spd
km/h
Gust
km/h
Spd
kts
Gust
kts
19/03:00pm 28.3 30.0 22.3 70 4.1 SE 17 26 9 14 1008.6 1008.5 0.0
19/02:30pm 28.9 30.3 22.9 70 4.1 SE 20 32 11 17 1009.0 - 0.0
19/02:00pm 28.4 28.9 21.9 68 4.4 SE 22 35 12 19 1009.2 - 0.0
19/01:30pm 28.2 26.6 20.0 61 5.4 SE 28 37 15 20 1009.7 - 0.0
19/01:00pm 30.4 32.9 23.8 68 4.6 E 17 28 9 15 1009.7 - 0.0
19/12:30pm 30.3 32.6 23.5 67 4.7 E 17 30 9 16 1010.1 - 0.0
19/12:00pm 29.5 33.3 24.1 72 3.8 E 11 19 6 10 1010.6 1010.5 0.0
19/11:30am 28.9 32.0 23.6 73 3.7 E 13 24 7 13 1011.1 - 0.0
19/11:00am 28.8 31.7 24.4 77 3.1 ESE 17 24 9 13 1011.6 - 0.0
19/10:30am 28.4 32.2 24.0 77 3.0 E 11 20 6 11 1012.0 - 0.0
19/10:00am 26.5 29.5 23.4 83 2.1 ESE 13 22 7 12 1012.1 - 0.0
19/09:30am 26.7 28.0 23.4 82 2.3 ESE 22 30 12 16 1012.0 - 0.0
19/09:00am 27.5 30.7 23.7 80 2.6 SE 13 19 7 10 1011.5 1011.4 7.6
19/08:30am 26.1 29.4 23.2 84 2.0 S 11 15 6 8 1011.7 - 7.6
19/08:00am 24.2 27.7 22.1 88 1.4 S 7 11 4 6 1011.5 - 7.6
19/07:30am 23.2 26.8 22.0 93 0.8 SSW 6 9 3 5 1011.3 - 7.6
19/07:00am 23.0 26.6 22.0 94 0.7 SSW 6 7 3 4 1011.0 - 7.6
19/06:30am 22.9 26.1 21.7 93 0.8 S 7 9 4 5 1010.6 - 7.6
19/06:00am 23.0 26.4 21.6 92 0.9 S 6 7 3 4 1010.3 1010.2 7.6
19/05:30am 23.1 26.2 21.5 91 1.1 SSE 7 11 4 6 1010.3 - 7.6
19/05:00am 23.1 26.3 21.7 92 0.9 SSE 7 9 4 5 1010.2 - 7.6
19/04:30am 23.0 26.2 21.6 92 0.9 SSE 7 9 4 5 1010.3 - 7.6
19/04:00am 23.1 26.6 21.9 93 0.8 S 6 7 3 4 1010.5 - 7.6
19/03:30am 23.2 26.7 21.8 92 0.9 S 6 7 3 4 1010.5 - 7.6
19/03:00am 23.4 26.8 22.0 92 0.9 SSE 7 9 4 5 1010.5 1010.4 7.4
19/02:30am 23.5 26.5 21.9 91 1.1 SSE 9 13 5 7 1010.7 - 7.4
19/02:00am 23.5 26.1 21.9 91 1.1 SE 11 15 6 8 1010.5 - 7.4
19/01:30am 23.7 26.5 22.3 92 0.9 SSE 11 15 6 8 1010.7 - 7.4
19/01:00am 23.8 26.3 22.4 92 0.9 SE 13 17 7 9 1011.0 - 7.4
19/12:30am 23.8 26.7 22.4 92 0.9 SSE 11 17 6 9 1011.4 - 7.4
19/12:00am 23.8 26.3 22.4 92 0.9 SSE 13 19 7 10 1011.6 1011.5 7.4
 
Date/Time
CST
Temp
°C
App
Temp
°C
Dew
Point
Rel
Hum
%
Delta-T
°C
Wind Press
QNH
hPa
Press
MSL
hPa
Rain
since 9 am
mm
Dir
 
Spd
km/h
Gust
km/h
Spd
kts
Gust
kts
18/11:30pm 23.9 25.9 22.3 91 1.1 SE 15 22 8 12 1012.0 - 7.4
18/11:00pm 24.1 26.0 22.7 92 0.9 SE 17 24 9 13 1012.3 - 7.4
18/10:30pm 24.3 26.9 22.7 91 1.1 SE 13 19 7 10 1012.4 - 7.4
18/10:00pm 24.1 26.6 22.5 91 1.1 SE 13 19 7 10 1012.6 - 7.4
18/09:30pm 24.1 27.6 22.9 93 0.8 SSE 9 15 5 8 1012.8 - 7.4
18/09:00pm 24.0 27.0 22.6 92 0.9 SSE 11 15 6 8 1012.7 1012.6 7.4
18/08:30pm 24.1 27.2 22.9 93 0.8 SSE 11 15 6 8 1012.8 - 7.4
18/08:00pm 24.6 28.5 23.6 94 0.7 SSE 9 13 5 7 1012.8 - 7.4
18/07:30pm 24.8 29.1 23.6 93 0.8 SE 7 11 4 6 1012.4 - 7.4
18/07:00pm 24.7 29.6 23.7 94 0.7 SE 4 11 2 6 1012.1 - 7.2
18/06:30pm 24.5 29.3 23.5 94 0.7 ESE 4 6 2 3 1011.8 - 6.8
18/06:00pm 24.2 27.4 23.0 93 0.8 NE 11 20 6 11 1011.8 1011.7 6.2
18/05:30pm 24.1 27.1 22.7 92 0.9 NE 11 20 6 11 1011.9 - 5.4
18/05:00pm 24.3 28.8 22.9 92 0.9 NE 4 9 2 5 1011.4 - 5.0
18/04:30pm 24.4 27.7 23.2 93 0.8 NE 11 20 6 11 1011.0 - 4.6
18/04:00pm 24.5 27.2 22.9 91 1.1 N 13 20 7 11 1010.8 - 2.2
18/03:30pm 26.9 31.5 24.2 85 1.9 WSW 7 9 4 5 1010.2 - 1.2
18/03:00pm 27.0 31.9 24.3 85 1.9 S 6 9 3 5 1010.4 1010.3 1.2
18/02:30pm 26.6 31.5 24.6 89 1.4 SSE 7 11 4 6 1010.4 - 1.2
18/02:00pm 26.4 31.0 24.8 91 1.1 SSE 9 11 5 6 1010.3 - 1.2
18/01:30pm 26.1 31.0 24.7 92 1.0 SSE 7 11 4 6 1010.5 - 1.2
18/01:00pm 25.5 31.1 24.3 93 0.8 NW 2 7 1 4 1010.8 - 1.0
18/12:30pm 25.4 30.3 23.6 90 1.2 SE 4 11 2 6 1011.2 - 0.4
18/12:00pm 25.8 28.6 23.7 88 1.4 SE 15 24 8 13 1011.6 1011.5 0.4
18/11:30am 25.4 28.1 23.5 89 1.3 ESE 15 20 8 11 1012.3 - 0.4
18/11:00am 26.8 28.2 23.5 82 2.3 SE 22 35 12 19 1012.2 - 0.2
18/10:30am 27.0 29.2 24.3 85 1.9 SE 20 30 11 16 1012.3 - 0.2
18/10:00am 27.7 29.8 23.1 76 3.1 SE 17 26 9 14 1012.0 - 0.0
18/09:30am 27.0 29.6 23.3 80 2.5 SE 15 22 8 12 1011.6 - 0.0
18/09:00am 26.4 28.8 22.9 81 2.4 SE 15 22 8 12 1011.8 1011.7 0.2
18/08:30am 26.0 28.7 22.9 83 2.1 SSE 13 20 7 11 1012.0 - 0.2
18/08:00am 25.6 28.1 23.1 86 1.7 SSE 15 20 8 11 1011.6 - 0.2
18/07:30am 25.1 28.4 23.2 89 1.3 SSE 11 15 6 8 1011.1 - 0.2
18/07:00am 24.7 28.2 22.9 90 1.2 SSE 9 13 5 7 1011.0 - 0.2
18/06:30am 24.6 28.2 23.0 91 1.1 SSE 9 13 5 7 1010.5 - 0.2
18/06:00am 24.6 28.2 23.0 91 1.1 SSE 9 11 5 6 1010.2 1010.1 0.2
18/05:30am 24.6 27.7 22.8 90 1.2 SE 11 15 6 8 1009.8 - 0.2
18/05:00am 24.6 27.8 23.0 91 1.1 SSE 11 15 6 8 1009.6 - 0.2
18/04:30am 24.7 27.8 22.9 90 1.2 S 11 17 6 9 1009.8 - 0.2
18/04:00am 24.7 28.2 22.9 90 1.2 SSE 9 17 5 9 1010.1 - 0.2
18/03:30am 24.7 27.0 22.8 89 1.3 SE 15 20 8 11 1010.1 - 0.2
18/03:00am 25.0 27.9 23.1 89 1.3 SSE 13 20 7 11 1010.0 1009.9 0.2
18/02:30am 25.1 28.0 23.2 89 1.3 SSE 13 19 7 10 1010.3 - 0.2
18/02:00am 25.3 28.0 23.5 90 1.2 SSE 15 20 8 11 1010.4 - 0.2
18/01:30am 25.5 27.5 23.6 89 1.3 SSE 19 26 10 14 1010.8 - 0.2
18/01:00am 25.7 28.5 23.6 88 1.4 SSE 15 24 8 13 1011.3 - 0.2
18/12:30am 25.8 29.0 23.7 88 1.4 SSE 13 19 7 10 1011.7 - 0.2
18/12:00am 25.7 28.8 23.6 88 1.4 SSE 13 19 7 10 1011.9 1011.8 0.2
 
Date/Time
CST
Temp
°C
App
Temp
°C
Dew
Point
Rel
Hum
%
Delta-T
°C
Wind Press
QNH
hPa
Press
MSL
hPa
Rain
since 9 am
mm
Dir
 
Spd
km/h
Gust
km/h
Spd
kts
Gust
kts
17/11:30pm 25.8 29.3 23.5 87 1.6 SSE 11 19 6 10 1011.9 - 0.2
17/11:00pm 25.8 28.9 23.5 87 1.6 S 13 15 7 8 1012.0 - 0.2
17/10:30pm 26.0 29.0 23.3 85 1.8 S 13 17 7 9 1012.0 - 0.2
17/10:00pm 26.1 29.1 23.4 85 1.8 S 13 19 7 10 1012.0 - 0.2
17/09:30pm 26.1 28.9 23.6 86 1.7 S 15 24 8 13 1012.0 - 0.2
17/09:00pm 26.1 28.9 23.6 86 1.7 SSE 15 20 8 11 1011.9 1011.8 0.2
17/08:30pm 26.2 29.8 23.7 86 1.7 S 11 17 6 9 1011.6 - 0.2
17/08:00pm 26.1 29.7 23.8 87 1.6 S 11 15 6 8 1011.0 - 0.2
17/07:30pm 26.1 30.0 23.6 86 1.7 S 9 13 5 7 1010.5 - 0.2
17/07:00pm 26.4 30.4 23.7 85 1.9 SSW 9 13 5 7 1010.1 - 0.2
17/06:30pm 26.6 30.6 23.7 84 2.0 SSW 9 13 5 7 1009.8 - 0.2
17/06:00pm 27.1 31.0 23.6 81 2.4 S 9 13 5 7 1009.8 1009.7 0.2
17/05:30pm 27.6 31.0 23.4 78 2.9 S 11 15 6 8 1009.7 - 0.2
17/05:00pm 27.6 31.6 23.8 80 2.6 SSE 9 11 5 6 1009.0 - 0.2
17/04:30pm 27.4 32.7 24.3 83 2.1 SE 4 9 2 5 1008.9 - 0.0
17/04:00pm 27.3 30.0 23.5 80 2.6 SE 15 20 8 11 1008.8 - 0.0
17/03:30pm 28.2 30.8 23.3 75 3.4 E 15 26 8 14 1008.8 - 0.0
17/03:00pm 29.1 31.4 23.5 72 3.9 E 17 30 9 16 1008.5 1008.4 0.0
17/02:30pm 32.6 35.7 23.5 58 6.3 NNE 13 22 7 12 1008.5 - 0.0
17/02:00pm 32.6 35.4 23.0 57 6.6 ENE 13 20 7 11 1008.7 - 0.0
17/01:30pm 32.2 35.0 22.3 56 6.8 NE 11 19 6 10 1009.0 - 0.0
17/01:00pm 31.8 35.1 22.5 58 6.4 ENE 9 19 5 10 1009.2 - 0.0
17/12:30pm 32.3 36.0 23.3 59 6.2 NE 9 15 5 8 1009.5 - 0.0
17/12:00pm 31.7 35.3 23.0 60 6.0 E 9 17 5 9 1010.3 1010.2 0.0
17/11:30am 32.2 35.4 23.7 61 5.9 ESE 13 20 7 11 1010.9 - 0.0
17/11:00am 32.2 35.8 23.7 61 5.9 ESE 11 19 6 10 1011.1 - 0.0
17/10:30am 30.8 33.4 22.7 62 5.5 E 13 19 7 10 1011.5 - 0.0
17/10:00am 31.4 34.7 23.2 61 5.7 ESE 11 17 6 9 1011.6 - 0.0
17/09:30am 30.6 33.5 22.5 62 5.5 ESE 11 15 6 8 1011.6 - 0.0
17/09:00am 29.3 31.9 22.0 64 4.9 SSE 11 13 6 7 1011.7 1011.6 0.0
17/08:30am 28.5 31.8 21.8 67 4.5 SSE 7 9 4 5 1011.5 - 0.0
17/08:00am 27.6 30.9 21.9 71 3.8 S 7 11 4 6 1011.3 - 0.0
17/07:30am 26.1 29.7 22.0 78 2.7 S 6 7 3 4 1011.1 - 0.0
17/07:00am 24.5 29.3 22.2 87 1.5 CALM 0 0 0 0 1010.8 - 0.0
17/06:30am 24.5 28.1 22.0 86 1.7 SSE 6 9 3 5 1010.3 - 0.0
17/06:00am 24.7 28.1 22.0 85 1.8 SSE 7 9 4 5 1010.0 1009.9 0.0
17/05:30am 24.9 28.3 22.0 84 1.9 SE 7 9 4 5 1009.7 - 0.0
17/05:00am 24.8 28.4 22.1 85 1.8 SSE 6 7 3 4 1009.6 - 0.0
17/04:30am 25.2 29.1 22.5 85 1.8 SSE 6 7 3 4 1009.4 - 0.0
17/04:00am 25.4 29.4 22.7 85 1.8 S 6 7 3 4 1009.4 - 0.0
17/03:30am 25.8 29.8 22.7 83 2.1 SE 6 7 3 4 1009.3 - 0.0
17/03:00am 26.3 29.8 22.8 81 2.4 SE 9 11 5 6 1009.4 1009.3 0.0
17/02:30am 26.0 30.2 23.1 84 2.0 SSE 6 9 3 5 1009.6 - 0.0
17/02:00am 26.5 31.4 23.6 84 2.0 SSE 4 6 2 3 1009.9 - 0.0
17/01:30am 26.7 31.1 23.8 84 2.0 SSE 7 9 4 5 1009.9 - 0.0
17/01:00am 27.0 31.7 23.9 83 2.1 SE 6 9 3 5 1010.3 - 0.0
17/12:30am 27.2 31.7 23.9 82 2.3 SSE 7 9 4 5 1010.6 - 0.0
17/12:00am 27.6 32.2 24.2 82 2.4 SE 7 9 4 5 1011.0 1010.9 0.0
 
Date/Time
CST
Temp
°C
App
Temp
°C
Dew
Point
Rel
Hum
%
Delta-T
°C
Wind Press
QNH
hPa
Press
MSL
hPa
Rain
since 9 am
mm
Dir
 
Spd
km/h
Gust
km/h
Spd
kts
Gust
kts
16/11:30pm 27.8 32.5 24.0 80 2.6 SSW 6 7 3 4 1011.0 - 0.0
16/11:00pm 26.8 31.5 23.9 84 2.0 E 6 7 3 4 1010.9 - 0.0
16/10:30pm 26.7 32.5 24.0 85 1.9 CALM 0 0 0 0 1010.9 - 0.0
16/10:00pm 26.4 31.2 23.5 84 2.0 ENE 4 6 2 3 1010.7 - 0.0
16/09:30pm 26.3 31.7 23.2 83 2.1 CALM 0 0 0 0 1010.5 - 0.0
16/09:00pm 26.8 32.4 23.5 82 2.3 CALM 0 0 0 0 1010.0 1009.9 0.0
16/08:30pm 26.7 32.0 23.0 80 2.5 CALM 0 0 0 0 1009.9 - 0.0
16/08:00pm 27.0 32.3 23.0 79 2.7 CALM 0 0 0 0 1009.7 - 0.0
16/07:30pm 27.4 32.6 22.8 76 3.1 CALM 0 0 0 0 1009.3 - 0.0
16/07:00pm 28.2 33.3 22.7 72 3.7 CALM 0 6 0 3 1009.0 - 0.0
16/06:30pm 29.0 33.7 22.7 69 4.3 N 2 6 1 3 1008.9 - 0.0
16/06:00pm 29.5 33.2 22.5 66 4.8 N 7 9 4 5 1008.6 1008.5 0.0
16/05:30pm 30.2 33.8 22.4 63 5.3 N 7 13 4 7 1008.3 - 0.0
16/05:00pm 30.8 34.4 22.4 61 5.7 N 7 13 4 7 1008.0 - 0.0
16/04:30pm 30.8 33.5 22.1 59 5.9 N 11 15 6 8 1008.0 - 0.0
16/04:00pm 31.6 34.9 23.2 61 5.8 NNE 11 17 6 9 1007.9 - 0.0
16/03:30pm 31.4 35.1 23.2 61 5.7 N 9 17 5 9 1008.0 - 0.0

Other Formats:

Comma delimited format used in spreadsheet applications
http://www.bom.gov.au/fwo/IDD60801/IDD60801.94140.axf

JavaScript Object Notation format (JSON) in row-major order
http://www.bom.gov.au/fwo/IDD60801/IDD60801.94140.json